createdAt,value
2019-05-10T00:01:00.532Z,13.54
2019-05-10T00:02:22.945Z,13.58
2019-05-10T00:03:44.691Z,13.44
2019-05-10T00:05:06.932Z,13.46
2019-05-10T00:06:29.083Z,13.24
2019-05-10T00:07:51.072Z,13.33
2019-05-10T00:08:54.667Z,13.39
2019-05-10T00:09:58.071Z,13.33
2019-05-10T00:11:06.563Z,13.25
2019-05-10T00:12:13.985Z,13.21
2019-05-10T00:13:22.400Z,13.21
2019-05-10T00:14:28.208Z,13.28
2019-05-10T00:15:33.883Z,13.30
2019-05-10T00:16:38.234Z,13.35
2019-05-10T00:17:42.539Z,13.37
2019-05-10T00:18:46.952Z,13.38
2019-05-10T00:19:51.259Z,13.29
2019-05-10T00:20:55.607Z,13.29
2019-05-10T00:21:59.775Z,13.25
2019-05-10T00:23:04.400Z,13.22
2019-05-10T00:24:08.660Z,13.19
2019-05-10T00:25:14.105Z,13.10
2019-05-10T00:26:18.263Z,13.04
2019-05-10T00:27:22.615Z,12.96
2019-05-10T00:28:26.851Z,13.03
2019-05-10T00:29:32.172Z,12.99
2019-05-10T00:30:36.361Z,13.09
2019-05-10T00:31:40.781Z,13.16
2019-05-10T00:32:44.943Z,13.23
2019-05-10T00:33:49.316Z,13.32
2019-05-10T00:34:53.488Z,13.42
2019-05-10T00:35:57.831Z,13.47
2019-05-10T00:37:02.000Z,13.47
2019-05-10T00:38:06.355Z,13.50
2019-05-10T00:39:10.557Z,13.56
2019-05-10T00:40:14.971Z,13.56
2019-05-10T00:41:19.136Z,13.59
2019-05-10T00:42:23.483Z,13.65
2019-05-10T00:43:27.652Z,13.70
2019-05-10T00:44:33.010Z,13.61
2019-05-10T00:45:37.171Z,13.63
2019-05-10T00:46:41.520Z,13.55
2019-05-10T00:47:45.688Z,13.51
2019-05-10T00:48:50.039Z,13.51
2019-05-10T00:49:54.397Z,13.49
2019-05-10T00:50:58.745Z,13.48
2019-05-10T00:52:02.937Z,13.50
2019-05-10T00:53:07.274Z,13.53
2019-05-10T00:54:11.446Z,13.52
2019-05-10T00:55:19.077Z,13.56
2019-05-10T00:56:21.677Z,13.60
2019-05-10T00:57:26.023Z,13.70
2019-05-10T00:58:30.193Z,13.75
2019-05-10T00:59:34.564Z,13.79
2019-05-10T01:00:38.747Z,13.87
2019-05-10T01:01:43.354Z,13.93
2019-05-10T01:02:47.515Z,13.92
2019-05-10T01:03:51.866Z,13.98
2019-05-10T01:04:56.031Z,14.02
2019-05-10T01:06:00.431Z,14.08
2019-05-10T01:07:04.606Z,14.10
2019-05-10T01:08:08.955Z,14.09
2019-05-10T01:09:13.490Z,14.13
2019-05-10T01:10:17.837Z,14.09
2019-05-10T01:11:22.035Z,14.06
2019-05-10T01:12:26.386Z,14.01
2019-05-10T01:13:30.553Z,13.84
2019-05-10T01:14:34.898Z,13.77
2019-05-10T01:15:39.064Z,13.72
2019-05-10T01:16:43.438Z,13.59
2019-05-10T01:17:47.605Z,13.46
2019-05-10T01:18:51.963Z,13.54
2019-05-10T01:19:56.481Z,13.51
2019-05-10T01:21:00.888Z,13.42
2019-05-10T01:22:05.055Z,13.37
2019-05-10T01:23:09.404Z,13.41
2019-05-10T01:24:13.612Z,13.43
2019-05-10T01:25:33.677Z,13.49
2019-05-10T01:26:24.009Z,13.48
2019-05-10T01:27:28.357Z,13.40
2019-05-10T01:28:32.524Z,13.36
2019-05-10T01:29:36.876Z,13.38
2019-05-10T01:30:41.577Z,13.41
2019-05-10T01:31:46.161Z,13.44
2019-05-10T01:32:50.481Z,13.40
2019-05-10T01:33:54.866Z,13.36
2019-05-10T01:34:59.068Z,13.43
2019-05-10T01:36:03.415Z,13.49
2019-05-10T01:37:07.607Z,13.49
2019-05-10T01:38:12.233Z,13.54
2019-05-10T01:39:16.396Z,13.58
2019-05-10T01:40:20.759Z,13.54
2019-05-10T01:41:24.924Z,13.50
2019-05-10T01:42:29.329Z,13.45
2019-05-10T01:43:33.642Z,13.46
2019-05-10T01:44:38.079Z,13.49
2019-05-10T01:45:42.743Z,13.45
2019-05-10T01:46:47.158Z,13.41
2019-05-10T01:47:51.402Z,13.43
2019-05-10T01:48:55.751Z,13.42
2019-05-10T01:49:59.947Z,13.31
2019-05-10T01:51:04.720Z,13.27
2019-05-10T01:52:08.962Z,13.28
2019-05-10T01:53:13.312Z,13.23
2019-05-10T01:54:17.532Z,13.14
2019-05-10T01:55:21.907Z,13.16
2019-05-10T01:56:26.074Z,13.24
2019-05-10T01:57:30.422Z,13.17
2019-05-10T01:58:34.598Z,13.19
2019-05-10T01:59:38.979Z,13.12
2019-05-10T02:00:43.438Z,13.10
2019-05-10T02:01:48.797Z,13.11
2019-05-10T02:02:53.036Z,13.08
2019-05-10T02:03:57.399Z,13.13
2019-05-10T02:05:01.588Z,13.19
2019-05-10T02:06:06.040Z,13.16
2019-05-10T02:07:10.194Z,13.09
2019-05-10T02:08:14.544Z,13.05
2019-05-10T02:09:18.762Z,12.96
2019-05-10T02:10:23.640Z,12.99
2019-05-10T02:11:27.871Z,12.94
2019-05-10T02:12:32.224Z,12.98
2019-05-10T02:13:36.391Z,13.02
2019-05-10T02:14:40.923Z,13.04
2019-05-10T02:15:45.129Z,13.04
2019-05-10T02:16:49.487Z,13.02
2019-05-10T02:17:53.656Z,13.02
2019-05-10T02:18:58.007Z,13.02
2019-05-10T02:20:02.233Z,12.99
2019-05-10T02:21:06.847Z,12.99
2019-05-10T02:22:11.127Z,12.99
2019-05-10T02:23:15.482Z,12.92
2019-05-10T02:24:19.650Z,12.98
2019-05-10T02:25:24.000Z,13.03
2019-05-10T02:26:28.216Z,13.06
2019-05-10T02:27:32.592Z,13.13
2019-05-10T02:28:36.774Z,13.14
2019-05-10T02:29:41.206Z,13.15
2019-05-10T02:30:45.385Z,13.20
2019-05-10T02:31:50.978Z,13.21
2019-05-10T02:32:55.146Z,13.17
2019-05-10T02:33:59.496Z,13.22
2019-05-10T02:35:06.437Z,13.18
2019-05-10T02:36:10.868Z,13.17
2019-05-10T02:37:15.447Z,13.15
2019-05-10T02:38:19.783Z,13.12
2019-05-10T02:39:24.020Z,13.12
2019-05-10T02:40:28.428Z,13.14
2019-05-10T02:41:32.589Z,13.15
2019-05-10T02:42:37.129Z,13.19
2019-05-10T02:43:41.294Z,13.21
2019-05-10T02:44:45.745Z,13.24
2019-05-10T02:45:49.913Z,13.24
2019-05-10T02:46:54.271Z,13.23
2019-05-10T02:47:58.468Z,13.24
2019-05-10T02:49:02.843Z,13.20
2019-05-10T02:50:07.186Z,13.19
2019-05-10T02:51:11.524Z,13.22
2019-05-10T02:52:15.690Z,13.15
2019-05-10T02:53:20.061Z,13.03
2019-05-10T02:54:24.264Z,12.99
2019-05-10T02:55:28.613Z,12.85
2019-05-10T02:56:32.789Z,12.73
2019-05-10T02:57:37.576Z,12.62
2019-05-10T02:58:42.786Z,12.56
2019-05-10T02:59:47.163Z,12.47
2019-05-10T03:00:51.391Z,12.35
2019-05-10T03:01:57.160Z,12.26
2019-05-10T03:03:01.436Z,12.26
2019-05-10T03:04:05.818Z,12.30
2019-05-10T03:05:10.243Z,12.26
2019-05-10T03:06:15.975Z,12.20
2019-05-10T03:07:20.165Z,12.23
2019-05-10T03:08:24.528Z,12.08
2019-05-10T03:09:28.866Z,12.15
2019-05-10T03:10:33.210Z,12.15
2019-05-10T03:11:46.307Z,12.19
2019-05-10T03:12:50.671Z,12.17
2019-05-10T03:13:55.522Z,12.20
2019-05-10T03:14:59.971Z,12.12
2019-05-10T03:16:04.420Z,12.05
2019-05-10T03:17:08.914Z,12.05
2019-05-10T03:18:13.088Z,12.07
2019-05-10T03:19:19.197Z,11.96
2019-05-10T03:20:23.340Z,11.91
2019-05-10T03:21:27.698Z,11.91
2019-05-10T03:22:33.585Z,11.88
2019-05-10T03:23:38.013Z,11.85
2019-05-10T03:24:42.213Z,11.83
2019-05-10T03:25:46.643Z,11.90
2019-05-10T03:26:51.672Z,11.89
2019-05-10T03:27:57.341Z,11.88
2019-05-10T03:29:01.523Z,11.87
2019-05-10T03:30:05.990Z,11.80
2019-05-10T03:31:10.240Z,11.72
2019-05-10T03:32:14.665Z,11.84
2019-05-10T03:33:18.968Z,11.87
2019-05-10T03:34:23.325Z,11.86
2019-05-10T03:35:27.518Z,11.90
2019-05-10T03:36:32.900Z,11.84
2019-05-10T03:37:37.080Z,11.79
2019-05-10T03:38:41.628Z,11.71
2019-05-10T03:39:45.797Z,11.70
2019-05-10T03:40:50.986Z,11.77
2019-05-10T03:41:55.159Z,11.75
2019-05-10T03:42:59.507Z,11.79
2019-05-10T03:44:04.343Z,11.85
2019-05-10T03:45:08.669Z,11.94
2019-05-10T03:46:12.930Z,11.92
2019-05-10T03:47:17.294Z,11.86
2019-05-10T03:48:21.463Z,11.85
2019-05-10T03:49:25.819Z,11.75
2019-05-10T03:50:29.980Z,11.79
2019-05-10T03:51:34.449Z,11.82
2019-05-10T03:52:38.617Z,11.78
2019-05-10T03:53:43.422Z,11.76
2019-05-10T03:54:47.589Z,11.83
2019-05-10T03:55:52.447Z,11.82
2019-05-10T03:57:11.847Z,11.77
2019-05-10T03:58:02.732Z,11.83
2019-05-10T03:59:06.945Z,11.92
2019-05-10T04:00:12.681Z,11.91
2019-05-10T04:01:16.865Z,11.99
2019-05-10T04:02:21.251Z,11.92
2019-05-10T04:03:25.414Z,11.91
2019-05-10T04:04:29.923Z,11.93
2019-05-10T04:05:34.112Z,11.78
2019-05-10T04:06:38.479Z,11.72
2019-05-10T04:07:42.663Z,11.80
2019-05-10T04:08:47.020Z,11.81
2019-05-10T04:09:51.197Z,11.83
2019-05-10T04:10:56.268Z,11.87
2019-05-10T04:12:00.436Z,11.83
2019-05-10T04:13:04.878Z,11.85
2019-05-10T04:14:09.049Z,11.76
2019-05-10T04:15:13.733Z,11.77
2019-05-10T04:16:17.894Z,11.83
2019-05-10T04:17:22.252Z,11.81
2019-05-10T04:18:26.421Z,11.72
2019-05-10T04:19:30.778Z,11.63
2019-05-10T04:20:34.945Z,11.64
2019-05-10T04:21:39.320Z,11.55
2019-05-10T04:22:43.484Z,11.56
2019-05-10T04:23:47.891Z,11.55
2019-05-10T04:24:52.125Z,11.58
2019-05-10T04:25:56.526Z,11.54
2019-05-10T04:27:00.684Z,11.57
2019-05-10T04:28:05.112Z,11.61
2019-05-10T04:29:10.241Z,11.56
2019-05-10T04:30:14.658Z,11.54
2019-05-10T04:31:18.873Z,11.54
2019-05-10T04:32:23.254Z,11.53
2019-05-10T04:33:27.417Z,11.67
2019-05-10T04:34:31.766Z,11.77
2019-05-10T04:35:35.950Z,11.84
2019-05-10T04:36:40.400Z,11.90
2019-05-10T04:37:45.048Z,11.94
2019-05-10T04:38:49.392Z,12.03
2019-05-10T04:39:53.563Z,12.08
2019-05-10T04:40:57.918Z,12.04
2019-05-10T04:42:02.158Z,12.00
2019-05-10T04:43:06.533Z,12.03
2019-05-10T04:44:11.151Z,11.95
2019-05-10T04:45:15.591Z,11.98
2019-05-10T04:46:19.776Z,12.05
2019-05-10T04:47:24.129Z,12.14
2019-05-10T04:48:28.405Z,12.21
2019-05-10T04:49:32.817Z,12.25
2019-05-10T04:50:37.020Z,12.31
2019-05-10T04:51:41.368Z,12.31
2019-05-10T04:52:45.548Z,12.29
2019-05-10T04:53:49.924Z,12.32
2019-05-10T04:54:54.163Z,12.31
2019-05-10T04:55:58.560Z,12.26
2019-05-10T04:57:02.885Z,12.24
2019-05-10T04:58:07.227Z,12.30
2019-05-10T04:59:11.432Z,12.32
2019-05-10T05:00:15.855Z,12.35
2019-05-10T05:01:20.023Z,12.31
2019-05-10T05:02:24.497Z,12.37
2019-05-10T05:03:28.680Z,12.41
2019-05-10T05:04:33.124Z,12.34
2019-05-10T05:05:37.385Z,12.40
2019-05-10T05:06:41.737Z,12.38
2019-05-10T05:07:47.000Z,12.39
2019-05-10T05:08:51.359Z,12.33
2019-05-10T05:09:55.527Z,12.17
2019-05-10T05:10:59.879Z,12.26
2019-05-10T05:12:05.038Z,12.34
2019-05-10T05:13:09.407Z,12.37
2019-05-10T05:14:13.571Z,12.30
2019-05-10T05:15:17.928Z,12.34
2019-05-10T05:16:22.153Z,12.38
2019-05-10T05:17:26.543Z,12.37
2019-05-10T05:18:30.743Z,12.35
2019-05-10T05:19:35.222Z,12.43
2019-05-10T05:20:39.378Z,12.44
2019-05-10T05:21:43.742Z,12.44
2019-05-10T05:22:47.950Z,12.52
2019-05-10T05:23:52.338Z,12.48
2019-05-10T05:25:01.076Z,12.59
2019-05-10T05:26:02.555Z,12.56
2019-05-10T05:27:06.725Z,12.56
2019-05-10T05:28:11.087Z,12.61
2019-05-10T05:29:15.743Z,12.72
2019-05-10T05:30:20.181Z,12.83
2019-05-10T05:31:24.363Z,12.88
2019-05-10T05:32:28.706Z,12.87
2019-05-10T05:33:32.883Z,12.87
2019-05-10T05:34:37.266Z,12.86
2019-05-10T05:35:41.534Z,12.88
2019-05-10T05:36:45.868Z,12.94
2019-05-10T05:37:50.033Z,13.02
2019-05-10T05:38:54.389Z,13.00
2019-05-10T05:39:58.592Z,13.04
2019-05-10T05:41:02.941Z,13.13
2019-05-10T05:42:07.151Z,13.10
2019-05-10T05:43:11.463Z,13.06
2019-05-10T05:44:20.327Z,13.10
2019-05-10T05:45:22.108Z,13.09
2019-05-10T05:46:26.289Z,13.08
2019-05-10T05:47:30.640Z,13.11
2019-05-10T05:48:40.544Z,13.15
2019-05-10T05:49:40.861Z,13.21
2019-05-10T05:50:45.068Z,13.21
2019-05-10T05:51:49.422Z,13.19
2019-05-10T05:52:53.629Z,13.28
2019-05-10T05:53:57.997Z,13.35
2019-05-10T05:55:02.141Z,13.38
2019-05-10T05:56:12.586Z,13.44
2019-05-10T05:57:12.391Z,13.51
2019-05-10T05:58:26.505Z,13.59
2019-05-10T05:59:26.052Z,13.61
2019-05-10T06:00:30.673Z,13.66
2019-05-10T06:01:34.563Z,13.63
2019-05-10T06:02:43.964Z,13.55
2019-05-10T06:03:45.057Z,13.53
2019-05-10T06:04:49.538Z,13.55
2019-05-10T06:05:53.710Z,13.58
2019-05-10T06:06:59.045Z,13.60
2019-05-10T06:08:04.595Z,13.56
2019-05-10T06:09:09.007Z,13.50
2019-05-10T06:10:17.193Z,13.52
2019-05-10T06:11:19.458Z,13.59
2019-05-10T06:12:23.629Z,13.61
2019-05-10T06:13:30.081Z,13.65
2019-05-10T06:14:34.315Z,13.74
2019-05-10T06:15:38.949Z,13.84
2019-05-10T06:16:45.153Z,13.89
2019-05-10T06:17:56.754Z,13.96
2019-05-10T06:18:55.082Z,13.99
2019-05-10T06:20:03.622Z,14.07
2019-05-10T06:21:05.335Z,14.10
2019-05-10T06:22:09.688Z,14.12
2019-05-10T06:23:13.860Z,14.17
2019-05-10T06:24:18.212Z,14.21
2019-05-10T06:25:38.104Z,14.26
2019-05-10T06:26:28.943Z,14.34
2019-05-10T06:27:35.426Z,14.41
2019-05-10T06:29:45.031Z,14.43
2019-05-10T06:30:49.489Z,14.45
2019-05-10T06:31:53.652Z,14.45
2019-05-10T06:33:00.760Z,14.50
2019-05-10T06:34:04.236Z,14.55
2019-05-10T06:35:14.162Z,14.61
2019-05-10T06:36:14.483Z,14.64
2019-05-10T06:37:18.854Z,14.63
2019-05-10T06:38:23.024Z,14.63
2019-05-10T06:39:27.362Z,14.61
2019-05-10T06:40:39.413Z,14.63
2019-05-10T06:41:37.610Z,14.63
2019-05-10T06:42:42.030Z,14.66
2019-05-10T06:43:51.244Z,14.71
2019-05-10T06:44:52.251Z,14.75
2019-05-10T06:45:56.601Z,14.81
2019-05-10T06:47:02.114Z,14.83
2019-05-10T06:48:06.883Z,14.84
2019-05-10T06:49:11.143Z,14.80
2019-05-10T06:50:15.510Z,14.81
2019-05-10T06:51:19.722Z,14.85
2019-05-10T06:52:27.665Z,14.75
2019-05-10T06:53:30.132Z,14.75
2019-05-10T06:54:34.484Z,14.79
2019-05-10T06:55:38.733Z,14.78
2019-05-10T06:56:43.087Z,14.79
2019-05-10T06:57:50.524Z,14.84
2019-05-10T06:58:53.475Z,14.91
2019-05-10T07:00:06.219Z,14.94
2019-05-10T07:01:04.457Z,14.93
2019-05-10T07:02:08.627Z,14.96
2019-05-10T07:03:13.084Z,15.01
2019-05-10T07:04:17.305Z,15.05
2019-05-10T07:05:21.701Z,15.06
2019-05-10T07:06:25.917Z,15.12
2019-05-10T07:07:43.117Z,15.13
2019-05-10T07:08:43.758Z,15.17
2019-05-10T07:10:48.130Z,15.22
2019-05-10T07:11:52.597Z,15.26
2019-05-10T07:13:02.958Z,15.33
2019-05-10T07:14:02.795Z,15.37
2019-05-10T07:15:07.416Z,15.35
2019-05-10T07:16:14.954Z,15.30
2019-05-10T07:17:17.691Z,15.37
2019-05-10T07:18:24.109Z,15.38
2019-05-10T07:19:28.832Z,15.42
2019-05-10T07:20:33.432Z,15.42
2019-05-10T07:21:39.097Z,15.38
2019-05-10T07:22:43.806Z,15.32
2019-05-10T07:23:47.925Z,15.29
2019-05-10T07:24:57.046Z,15.35
2019-05-10T07:25:58.164Z,15.39
2019-05-10T07:27:05.545Z,15.44
2019-05-10T07:28:09.702Z,15.51
2019-05-10T07:29:29.171Z,15.58
2019-05-10T07:30:26.284Z,15.61
2019-05-10T07:31:30.746Z,15.66
2019-05-10T07:32:35.930Z,15.70
2019-05-10T07:33:40.374Z,15.75
2019-05-10T07:34:48.783Z,15.76
2019-05-10T07:35:50.634Z,15.81
2019-05-10T07:36:54.779Z,15.86
2019-05-10T07:37:59.135Z,15.89
2019-05-10T07:39:08.414Z,15.96
2019-05-10T07:40:11.665Z,15.98
2019-05-10T07:41:19.339Z,15.87
2019-05-10T07:42:22.089Z,15.92
2019-05-10T07:43:28.863Z,15.97
2019-05-10T07:44:32.398Z,16.01
2019-05-10T07:45:36.567Z,16.00
2019-05-10T07:46:46.559Z,15.99
2019-05-10T07:47:46.982Z,15.93
2019-05-10T07:48:53.821Z,15.84
2019-05-10T07:49:57.295Z,15.83
2019-05-10T07:51:01.645Z,15.83
2019-05-10T07:52:05.826Z,15.89
2019-05-10T07:53:10.205Z,15.96
2019-05-10T07:54:15.483Z,16.03
2019-05-10T07:55:27.435Z,15.94
2019-05-10T07:56:26.788Z,15.96
2019-05-10T07:57:31.183Z,16.02
2019-05-10T07:58:38.118Z,16.08
2019-05-10T07:59:50.292Z,16.11
2019-05-10T08:00:47.591Z,16.16
2019-05-10T08:01:51.990Z,16.17
2019-05-10T08:03:07.493Z,16.18
2019-05-10T08:04:02.239Z,16.21
2019-05-10T08:05:10.925Z,16.23
2019-05-10T08:06:15.312Z,16.28
2019-05-10T08:07:18.667Z,16.34
2019-05-10T08:08:23.072Z,16.41
2019-05-10T08:09:31.489Z,16.48
2019-05-10T08:10:33.287Z,16.54
2019-05-10T08:11:39.097Z,16.53
2019-05-10T08:12:45.551Z,16.61
2019-05-10T08:13:49.443Z,16.56
2019-05-10T08:14:54.772Z,16.55
2019-05-10T08:15:59.488Z,16.62
2019-05-10T08:17:06.288Z,16.65
2019-05-10T08:18:10.014Z,16.58
2019-05-10T08:19:14.305Z,16.56
2019-05-10T08:20:33.407Z,16.56
2019-05-10T08:21:26.512Z,16.55
2019-05-10T08:22:40.193Z,16.45
2019-05-10T08:23:37.463Z,16.44
2019-05-10T08:24:46.416Z,16.44
2019-05-10T08:25:47.736Z,16.44
2019-05-10T08:26:55.500Z,16.41
2019-05-10T08:28:02.639Z,16.48
2019-05-10T08:29:07.765Z,16.58
2019-05-10T08:30:22.548Z,16.66
2019-05-10T08:31:17.499Z,16.73
2019-05-10T08:32:25.480Z,16.81
2019-05-10T08:33:29.109Z,16.82
2019-05-10T08:34:35.665Z,16.85
2019-05-10T08:35:43.400Z,16.86
2019-05-10T08:36:47.584Z,16.93
2019-05-10T08:37:53.000Z,16.90
2019-05-10T08:39:07.019Z,16.89
2019-05-10T08:40:03.774Z,16.82
2019-05-10T08:41:14.879Z,16.90
2019-05-10T08:42:32.639Z,16.98
2019-05-10T08:43:21.790Z,17.08
2019-05-10T08:44:26.183Z,17.12
2019-05-10T08:45:32.457Z,17.21
2019-05-10T08:46:41.206Z,17.25
2019-05-10T08:47:42.855Z,17.34
2019-05-10T08:48:51.372Z,17.44
2019-05-10T08:50:10.749Z,17.45
2019-05-10T08:51:05.645Z,17.46
2019-05-10T08:52:05.288Z,17.53
2019-05-10T08:53:11.074Z,17.55
2019-05-10T08:54:15.498Z,17.59
2019-05-10T08:55:19.931Z,17.67
2019-05-10T08:56:24.433Z,17.68
2019-05-10T08:57:28.671Z,17.60
2019-05-10T08:58:37.149Z,17.51
2019-05-10T08:59:38.910Z,17.56
2019-05-10T09:00:54.403Z,17.64
2019-05-10T09:01:50.806Z,17.71
2019-05-10T09:02:55.508Z,17.77
2019-05-10T09:04:04.389Z,17.77
2019-05-10T09:05:05.995Z,17.81
2019-05-10T09:06:14.209Z,17.81
2019-05-10T09:07:16.531Z,17.89
2019-05-10T09:08:24.790Z,17.92
2019-05-10T09:09:26.790Z,17.94
2019-05-10T09:10:32.377Z,17.96
2019-05-10T09:11:37.098Z,17.96
2019-05-10T09:12:50.661Z,17.93
2019-05-10T09:13:47.395Z,17.93
2019-05-10T09:14:57.445Z,17.96
2019-05-10T09:15:57.672Z,18.00
2019-05-10T09:17:04.310Z,18.03
2019-05-10T09:18:08.022Z,18.09
2019-05-10T09:19:12.497Z,18.15
2019-05-10T09:20:25.528Z,18.19
2019-05-10T09:21:23.235Z,18.23
2019-05-10T09:22:34.060Z,18.30
2019-05-10T09:23:33.484Z,18.29
2019-05-10T09:24:43.244Z,18.37
2019-05-10T09:25:43.695Z,18.43
2019-05-10T09:26:52.761Z,18.46
2019-05-10T09:27:53.941Z,18.48
2019-05-10T09:28:58.289Z,18.41
2019-05-10T09:30:03.067Z,18.40
2019-05-10T09:31:18.639Z,18.43
2019-05-10T09:32:14.444Z,18.41
2019-05-10T09:33:22.256Z,18.44
2019-05-10T09:34:27.191Z,18.49
2019-05-10T09:35:32.997Z,18.52
2019-05-10T09:36:37.211Z,18.49
2019-05-10T09:37:42.171Z,18.57
2019-05-10T09:38:46.522Z,18.66
2019-05-10T09:39:54.927Z,18.66
2019-05-10T09:40:57.851Z,18.67
2019-05-10T09:42:08.026Z,18.67
2019-05-10T09:43:09.747Z,18.72
2019-05-10T09:44:14.216Z,18.75
2019-05-10T09:45:18.376Z,18.70
2019-05-10T09:46:22.994Z,18.67
2019-05-10T09:47:27.497Z,18.70
2019-05-10T09:48:33.258Z,18.76
2019-05-10T09:49:37.591Z,18.80
2019-05-10T09:50:46.735Z,18.84
2019-05-10T09:51:47.976Z,18.86
2019-05-10T09:52:52.377Z,18.93
2019-05-10T09:53:57.656Z,18.90
2019-05-10T09:55:03.940Z,18.89
2019-05-10T09:56:08.470Z,18.99
2019-05-10T09:57:12.833Z,19.03
2019-05-10T09:58:21.789Z,19.11
2019-05-10T09:59:23.076Z,19.18
2019-05-10T10:00:37.700Z,19.17
2019-05-10T10:01:40.732Z,19.21
2019-05-10T10:02:47.740Z,19.20
2019-05-10T10:03:51.040Z,19.08
2019-05-10T10:04:58.578Z,19.07
2019-05-10T10:06:07.402Z,19.10
2019-05-10T10:07:07.146Z,19.17
2019-05-10T10:08:11.569Z,19.21
2019-05-10T10:09:17.197Z,19.21
2019-05-10T10:10:29.265Z,19.16
2019-05-10T10:11:27.904Z,19.18
2019-05-10T10:12:32.263Z,19.16
2019-05-10T10:13:43.085Z,19.21
2019-05-10T10:14:43.265Z,19.28
2019-05-10T10:15:51.941Z,19.26
2019-05-10T10:16:58.370Z,19.21
2019-05-10T10:17:59.527Z,19.29
2019-05-10T10:19:03.879Z,19.29
2019-05-10T10:20:08.642Z,19.32
2019-05-10T10:21:13.396Z,19.30
2019-05-10T10:22:19.838Z,19.36
2019-05-10T10:23:29.494Z,19.48
2019-05-10T10:24:30.331Z,19.59
2019-05-10T10:25:39.872Z,19.72
2019-05-10T10:26:40.750Z,19.72
2019-05-10T10:27:45.126Z,19.72
2019-05-10T10:28:54.509Z,19.75
2019-05-10T10:29:57.341Z,19.81
2019-05-10T10:31:05.290Z,19.85
2019-05-10T10:32:08.025Z,19.89
2019-05-10T10:33:17.805Z,19.89
2019-05-10T10:34:19.279Z,19.73
2019-05-10T10:35:27.752Z,19.73
2019-05-10T10:36:29.486Z,19.81
2019-05-10T10:37:33.676Z,19.91
2019-05-10T10:38:45.486Z,20.00
2019-05-10T10:39:43.886Z,20.02
2019-05-10T10:40:48.232Z,20.01
2019-05-10T10:41:52.535Z,20.08
2019-05-10T10:42:57.754Z,20.14
2019-05-10T10:44:02.089Z,20.16
2019-05-10T10:45:07.659Z,20.20
2019-05-10T10:46:12.711Z,20.11
2019-05-10T10:47:17.975Z,20.10
2019-05-10T10:48:22.284Z,20.07
2019-05-10T10:49:28.059Z,20.06
2019-05-10T10:50:32.492Z,20.06
2019-05-10T10:51:37.916Z,20.09
2019-05-10T10:52:42.185Z,20.15
2019-05-10T10:53:47.063Z,20.19
2019-05-10T10:54:51.309Z,20.23
2019-05-10T10:56:02.470Z,20.23
2019-05-10T10:57:01.518Z,20.27
2019-05-10T10:58:07.435Z,20.32
2019-05-10T10:59:11.799Z,20.35
2019-05-10T11:00:23.225Z,20.41
2019-05-10T11:01:25.565Z,20.44
2019-05-10T11:02:33.567Z,20.49
2019-05-10T11:03:35.943Z,20.55
2019-05-10T11:04:46.393Z,20.52
2019-05-10T11:05:46.526Z,20.47
2019-05-10T11:06:50.877Z,20.56
2019-05-10T11:07:55.038Z,20.55
2019-05-10T11:09:01.609Z,20.53
2019-05-10T11:10:15.428Z,20.58
2019-05-10T11:11:13.075Z,20.59
2019-05-10T11:12:22.488Z,20.64
2019-05-10T11:13:40.651Z,20.66
2019-05-10T11:14:34.013Z,20.72
2019-05-10T11:15:36.479Z,20.75
2019-05-10T11:16:41.440Z,20.77
2019-05-10T11:17:45.886Z,20.74
2019-05-10T11:18:51.927Z,20.73
2019-05-10T11:19:56.131Z,20.72
2019-05-10T11:21:02.027Z,20.68
2019-05-10T11:22:09.472Z,20.74
2019-05-10T11:23:16.200Z,20.70
2019-05-10T11:24:22.383Z,20.69
2019-05-10T11:25:25.815Z,20.67
2019-05-10T11:26:32.948Z,20.68
2019-05-10T11:27:36.032Z,20.72
2019-05-10T11:28:44.163Z,20.74
2019-05-10T11:29:46.246Z,20.75
2019-05-10T11:30:51.717Z,20.77
2019-05-10T11:32:12.331Z,20.80
2019-05-10T11:33:01.941Z,20.87
2019-05-10T11:34:06.404Z,20.94
2019-05-10T11:35:11.787Z,21.00
2019-05-10T11:36:16.798Z,21.03
2019-05-10T11:37:31.008Z,21.07
2019-05-10T11:38:27.039Z,21.10
2019-05-10T11:39:32.949Z,21.14
2019-05-10T11:40:37.451Z,21.23
2019-05-10T11:41:41.899Z,21.28
2019-05-10T11:42:47.626Z,21.31
2019-05-10T11:43:52.267Z,21.35
2019-05-10T11:44:56.426Z,21.42
2019-05-10T11:46:00.784Z,21.48
2019-05-10T11:47:20.130Z,21.53
2019-05-10T11:48:11.046Z,21.50
2019-05-10T11:49:15.211Z,21.48
2019-05-10T11:50:28.809Z,21.44
2019-05-10T11:51:25.433Z,21.41
2019-05-10T11:52:34.716Z,21.20
2019-05-10T11:53:35.760Z,21.23
2019-05-10T11:54:41.698Z,21.23
2019-05-10T11:55:46.061Z,21.28
2019-05-10T11:56:52.221Z,21.32
2019-05-10T11:58:03.221Z,21.28
2019-05-10T11:59:02.850Z,21.31
2019-05-10T12:01:19.296Z,21.33
2019-05-10T12:02:37.013Z,21.38
2019-05-10T12:03:26.720Z,21.49
2019-05-10T12:04:38.981Z,21.45
2019-05-10T12:05:37.048Z,21.48
2019-05-10T12:06:50.015Z,21.54
2019-05-10T12:07:47.296Z,21.63
2019-05-10T12:10:08.330Z,21.64
2019-05-10T12:11:12.380Z,21.68
2019-05-10T12:12:12.253Z,21.69
2019-05-10T12:14:22.020Z,21.74
2019-05-10T12:15:26.205Z,21.72
2019-05-10T12:16:33.364Z,21.74
2019-05-10T12:17:36.526Z,21.73
2019-05-10T12:18:46.543Z,21.72
2019-05-10T12:19:50.585Z,21.73
2019-05-10T12:22:03.570Z,21.84
2019-05-10T12:23:13.261Z,21.88
2019-05-10T12:24:32.786Z,21.84
2019-05-10T12:25:37.925Z,21.87
2019-05-10T12:26:05.331Z,21.67
2019-05-10T12:26:15.763Z,21.37
2019-05-10T12:26:18.523Z,21.66
2019-05-10T12:26:27.898Z,21.80
2019-05-10T12:27:44.094Z,21.71
2019-05-10T12:28:36.743Z,21.67
2019-05-10T12:29:41.118Z,21.68
2019-05-10T12:30:45.329Z,21.70
2019-05-10T12:31:53.358Z,21.74
2019-05-10T12:32:58.111Z,21.77
2019-05-10T12:34:08.930Z,21.70
2019-05-10T12:35:07.501Z,21.68
2019-05-10T12:36:22.242Z,21.68
2019-05-10T12:37:20.140Z,21.64
2019-05-10T12:38:29.616Z,21.65
2019-05-10T12:39:30.948Z,21.67
2019-05-10T12:40:35.462Z,21.57
2019-05-10T12:41:45.060Z,21.68
2019-05-10T12:42:47.074Z,21.68
2019-05-10T12:43:51.901Z,21.73
2019-05-10T12:44:57.291Z,21.74
2019-05-10T12:46:01.507Z,21.81
2019-05-10T12:47:05.913Z,21.88
2019-05-10T12:48:10.120Z,21.85
2019-05-10T12:49:14.512Z,21.91
2019-05-10T12:50:19.023Z,21.95
2019-05-10T12:51:23.373Z,22.01
2019-05-10T12:52:28.684Z,21.99
2019-05-10T12:53:36.730Z,21.98
2019-05-10T12:54:41.458Z,21.99
2019-05-10T12:55:45.439Z,22.06
2019-05-10T12:56:49.604Z,22.08
2019-05-10T12:57:53.951Z,22.10
2019-05-10T12:58:59.627Z,22.07
2019-05-10T13:00:06.925Z,22.03
2019-05-10T13:01:11.539Z,22.07
2019-05-10T13:02:15.936Z,22.14
2019-05-10T13:03:25.274Z,22.20
2019-05-10T13:04:39.606Z,22.18
2019-05-10T13:05:34.166Z,22.10
2019-05-10T13:06:38.211Z,21.96
2019-05-10T13:07:42.390Z,21.91
2019-05-10T13:08:46.735Z,21.94
2019-05-10T13:10:01.474Z,21.91
2019-05-10T13:10:58.180Z,21.86
2019-05-10T13:12:03.921Z,21.77
2019-05-10T13:13:08.399Z,21.82
2019-05-10T13:14:12.607Z,21.90
2019-05-10T13:15:17.082Z,21.95
2019-05-10T13:16:21.315Z,22.02
2019-05-10T13:17:25.668Z,22.08
2019-05-10T13:19:35.887Z,22.06
2019-05-10T13:20:40.088Z,22.12
2019-05-10T13:21:44.543Z,22.09
2019-05-10T13:22:49.028Z,22.17
2019-05-10T13:23:55.202Z,22.18
2019-05-10T13:24:59.276Z,22.21
2019-05-10T13:26:03.952Z,22.21
2019-05-10T13:27:08.107Z,22.21
2019-05-10T13:28:12.460Z,22.25
2019-05-10T13:29:16.627Z,22.21
2019-05-10T13:30:27.154Z,22.19
2019-05-10T13:31:26.973Z,22.25
2019-05-10T13:32:31.303Z,22.27
2019-05-10T13:33:41.779Z,22.26
2019-05-10T13:34:41.633Z,22.22
2019-05-10T13:35:50.832Z,22.23
2019-05-10T13:36:51.948Z,22.27
2019-05-10T13:37:56.832Z,22.30
2019-05-10T13:39:02.304Z,22.36
2019-05-10T13:40:08.360Z,22.33
2019-05-10T13:41:17.481Z,22.23
2019-05-10T13:42:18.923Z,22.21
2019-05-10T13:43:26.659Z,22.23
2019-05-10T13:44:29.576Z,22.31
2019-05-10T13:45:37.866Z,22.32
2019-05-10T13:46:39.930Z,22.24
2019-05-10T13:47:44.545Z,22.25
2019-05-10T13:48:48.754Z,22.16
2019-05-10T13:49:53.135Z,22.18
2019-05-10T13:50:58.598Z,22.23
2019-05-10T13:52:03.279Z,22.31
2019-05-10T13:53:19.866Z,22.16
2019-05-10T13:54:13.558Z,22.19
2019-05-10T13:55:17.777Z,22.23
2019-05-10T13:56:22.196Z,22.29
2019-05-10T13:57:26.554Z,22.32
2019-05-10T13:58:30.919Z,22.39
2019-05-10T13:59:35.092Z,22.33
2019-05-10T14:00:39.519Z,22.30
2019-05-10T14:01:44.213Z,22.14